Time;durP1;ratioP1;P1;durP2;ratioP2;P2;SDS_P1;SDS_P2;PMS_P1;PMS_P2;Temp;Humidity;BMP_temperature;BMP_pressure;BME280_temperature;BME280_humidity;BME280_pressure;Samples;Min_cycle;Max_cycle;Signal;HPM_P1;HPM_P2
2023/10/21 00:01:08;;;;;;;93.60;36.55;;;11.10;99.90;;;;;;5005741;28;20065;-74
2023/10/21 00:03:36;;;;;;;87.50;33.20;;;11.10;99.90;;;;;;5021106;28;20132;-74
2023/10/21 00:06:03;;;;;;;102.25;36.67;;;11.00;99.90;;;;;;5007613;28;20132;-74
2023/10/21 00:08:29;;;;;;;53.28;30.38;;;11.00;99.90;;;;;;5006006;28;20103;-74
2023/10/21 00:11:05;;;;;;;53.35;29.45;;;11.00;99.90;;;;;;5005714;28;20057;-74
2023/10/21 00:13:32;;;;;;;53.15;28.77;;;10.90;99.90;;;;;;5007828;28;20484;-74
2023/10/21 00:15:58;;;;;;;47.70;27.20;;;10.90;99.90;;;;;;5038818;28;20080;-74
2023/10/21 00:18:25;;;;;;;125.05;36.33;;;10.80;99.90;;;;;;5022445;28;20618;-74
2023/10/21 00:20:53;;;;;;;49.45;25.75;;;10.90;99.90;;;;;;5005919;28;20164;-74
2023/10/21 00:23:20;;;;;;;40.38;24.33;;;10.80;99.90;;;;;;5021391;28;20052;-74
2023/10/21 00:25:51;;;;;;;57.40;25.48;;;10.80;99.90;;;;;;5008220;28;20045;-74
2023/10/21 00:28:17;;;;;;;34.45;22.23;;;10.80;99.90;;;;;;5004037;28;20053;-74
2023/10/21 00:30:47;;;;;;;37.38;22.65;;;10.80;99.90;;;;;;5031938;28;20049;-76
2023/10/21 00:33:14;;;;;;;35.60;20.08;;;10.70;99.90;;;;;;5036067;28;20478;-74
2023/10/21 00:35:42;;;;;;;57.65;25.05;;;10.70;99.90;;;;;;5024203;28;20519;-74
2023/10/21 00:38:08;;;;;;;35.40;20.63;;;10.70;99.90;;;;;;5003721;28;20104;-74
2023/10/21 00:40:36;;;;;;;35.33;19.33;;;10.70;99.90;;;;;;5020149;28;20045;-74
2023/10/21 00:43:03;;;;;;;55.75;23.92;;;10.70;99.90;;;;;;5021322;28;20073;-74
2023/10/21 00:45:29;;;;;;;39.13;21.25;;;10.80;99.90;;;;;;5020810;28;20535;-74
2023/10/21 00:47:55;;;;;;;58.95;24.55;;;10.80;99.90;;;;;;5021673;28;20045;-74
2023/10/21 00:50:21;;;;;;;35.60;20.23;;;10.80;99.90;;;;;;5017916;28;20053;-74
2023/10/21 00:52:48;;;;;;;35.92;21.70;;;10.70;99.90;;;;;;5019818;28;20095;-74
2023/10/21 00:55:14;;;;;;;37.70;21.55;;;10.80;99.90;;;;;;5002639;28;20542;-74
2023/10/21 00:57:40;;;;;;;32.60;20.50;;;10.80;99.90;;;;;;5011583;28;20126;-74
2023/10/21 01:00:11;;;;;;;45.67;23.63;;;10.80;99.90;;;;;;5002307;28;20045;-74
2023/10/21 01:02:38;;;;;;;32.58;21.13;;;10.80;99.90;;;;;;5001572;28;20059;-74
2023/10/21 01:05:05;;;;;;;60.13;26.02;;;10.80;99.90;;;;;;5019143;28;20118;-74
2023/10/21 01:07:41;;;;;;;56.75;26.17;;;10.80;99.90;;;;;;5025547;28;20053;-75
2023/10/21 01:10:07;;;;;;;51.17;25.60;;;10.80;99.90;;;;;;5009608;28;20073;-75
2023/10/21 01:12:36;;;;;;;81.57;31.52;;;10.80;99.90;;;;;;5010884;28;20635;-74
2023/10/21 01:15:02;;;;;;;68.88;31.35;;;10.80;99.90;;;;;;5011532;28;20048;-75
2023/10/21 01:17:28;;;;;;;64.75;30.75;;;10.80;99.90;;;;;;5024767;28;20046;-75
2023/10/21 01:19:57;;;;;;;43.47;26.85;;;10.80;99.90;;;;;;5030026;28;20076;-75
2023/10/21 01:22:23;;;;;;;56.15;29.48;;;10.80;99.90;;;;;;5025045;28;20041;-75
2023/10/21 01:24:49;;;;;;;88.15;35.90;;;10.80;99.90;;;;;;5029764;28;20051;-75
2023/10/21 01:27:16;;;;;;;50.03;27.73;;;10.80;99.90;;;;;;5038731;28;20388;-75
2023/10/21 01:29:41;;;;;;;52.60;29.52;;;10.80;99.90;;;;;;5026665;28;20451;-75
2023/10/21 01:32:07;;;;;;;47.90;28.55;;;10.80;99.90;;;;;;5019674;28;20045;-75
2023/10/21 01:34:36;;;;;;;70.13;34.10;;;10.80;99.90;;;;;;5006184;28;20101;-75
2023/10/21 01:37:02;;;;;;;51.30;31.60;;;10.80;99.90;;;;;;5021881;28;20057;-75
2023/10/21 01:39:28;;;;;;;83.35;38.00;;;10.70;99.90;;;;;;5025572;28;20037;-75
2023/10/21 01:41:53;;;;;;;52.92;29.95;;;10.70;99.90;;;;;;5011996;28;20073;-75
2023/10/21 01:44:19;;;;;;;73.38;35.92;;;10.70;99.90;;;;;;5013954;28;20040;-75
2023/10/21 01:46:45;;;;;;;52.13;30.25;;;10.70;99.90;;;;;;5023316;28;20046;-75
2023/10/21 01:49:11;;;;;;;51.03;31.65;;;10.70;99.90;;;;;;5024929;28;20053;-75
2023/10/21 01:51:36;;;;;;;78.93;36.92;;;10.70;99.90;;;;;;5011393;28;20046;-75
2023/10/21 01:54:04;;;;;;;91.53;37.60;;;10.70;99.90;;;;;;5011179;28;20045;-75
2023/10/21 01:56:30;;;;;;;52.30;30.73;;;10.70;99.90;;;;;;5027800;28;20042;-75
2023/10/21 01:58:57;;;;;;;97.95;39.42;;;10.70;99.90;;;;;;5023585;28;20076;-75
2023/10/21 02:01:23;;;;;;;58.20;33.13;;;10.60;99.90;;;;;;5009822;28;20041;-75
2023/10/21 02:03:49;;;;;;;106.63;42.88;;;10.60;99.90;;;;;;5012798;28;20132;-75
2023/10/21 02:06:14;;;;;;;49.33;31.38;;;10.50;99.90;;;;;;5009689;28;20155;-75
2023/10/21 02:08:40;;;;;;;126.38;42.10;;;10.50;99.90;;;;;;5025174;28;20117;-75
2023/10/21 02:11:06;;;;;;;88.30;33.38;;;10.50;99.90;;;;;;5017624;28;20415;-75
2023/10/21 02:13:31;;;;;;;125.80;40.50;;;10.40;99.90;;;;;;5024740;28;20484;-75
2023/10/21 02:15:58;;;;;;;88.20;35.33;;;10.30;99.90;;;;;;5026499;28;20501;-75
2023/10/21 02:18:23;;;;;;;120.95;40.45;;;10.30;99.90;;;;;;5022760;28;20595;-75
2023/10/21 02:20:52;;;;;;;55.35;30.13;;;10.20;99.90;;;;;;5017827;28;20453;-75
2023/10/21 02:23:18;;;;;;;51.70;28.08;;;10.20;99.90;;;;;;5007416;28;20037;-75
2023/10/21 02:25:43;;;;;;;70.15;31.88;;;10.20;99.90;;;;;;5005740;28;20419;-75
2023/10/21 02:28:10;;;;;;;44.75;27.88;;;10.10;99.90;;;;;;5005247;28;20045;-75
2023/10/21 02:30:36;;;;;;;46.70;26.75;;;10.10;99.90;;;;;;5009105;28;20048;-75
2023/10/21 02:33:03;;;;;;;45.05;26.77;;;10.10;99.90;;;;;;5006266;28;20072;-75
2023/10/21 02:35:34;;;;;;;51.07;29.90;;;10.10;99.90;;;;;;5006692;28;20120;-75
2023/10/21 02:38:00;;;;;;;116.03;38.75;;;10.10;99.90;;;;;;5040457;28;20187;-75
2023/10/21 02:40:26;;;;;;;63.65;30.58;;;10.10;99.90;;;;;;5008656;28;20120;-80
2023/10/21 02:42:51;;;;;;;144.30;42.75;;;10.00;99.90;;;;;;5022807;28;20107;-80
2023/10/21 02:45:17;;;;;;;60.47;31.48;;;10.00;99.90;;;;;;5009201;28;20119;-80
2023/10/21 02:47:43;;;;;;;94.22;36.45;;;10.00;99.90;;;;;;5017185;28;20047;-80
2023/10/21 02:50:09;;;;;;;47.20;28.42;;;10.00;99.90;;;;;;5002121;28;20056;-80
2023/10/21 02:52:37;;;;;;;47.28;27.58;;;10.00;99.90;;;;;;5025193;28;20488;-80
2023/10/21 02:55:04;;;;;;;39.90;25.92;;;10.00;99.90;;;;;;5006740;28;20042;-80
2023/10/21 02:57:30;;;;;;;60.80;31.48;;;10.00;99.90;;;;;;5006264;28;20060;-80
2023/10/21 02:59:56;;;;;;;44.50;27.67;;;10.00;99.90;;;;;;5005216;28;20484;-80
2023/10/21 03:02:22;;;;;;;42.65;28.58;;;10.10;99.90;;;;;;5022799;28;20041;-75
2023/10/21 03:04:47;;;;;;;56.38;30.45;;;10.00;99.90;;;;;;5019578;28;20045;-75
2023/10/21 03:07:13;;;;;;;96.00;35.13;;;10.10;99.90;;;;;;5007009;28;20042;-75
2023/10/21 03:09:39;;;;;;;48.72;28.70;;;10.10;99.90;;;;;;5018603;28;20056;-75
2023/10/21 03:12:05;;;;;;;106.43;37.95;;;10.10;99.90;;;;;;5024910;28;20052;-74
2023/10/21 03:14:31;;;;;;;88.60;34.28;;;10.10;99.90;;;;;;5019280;28;20507;-75
2023/10/21 03:16:56;;;;;;;67.20;31.73;;;10.10;99.90;;;;;;5023175;28;20068;-74
2023/10/21 03:19:22;;;;;;;47.47;27.80;;;10.10;99.90;;;;;;5021017;28;20088;-74
2023/10/21 03:21:48;;;;;;;70.93;33.15;;;10.10;99.90;;;;;;5005686;28;20038;-74
2023/10/21 03:24:14;;;;;;;43.10;28.30;;;10.00;99.90;;;;;;5017748;28;20095;-74
2023/10/21 03:26:40;;;;;;;90.88;39.35;;;10.10;99.90;;;;;;5023472;28;20053;-74
2023/10/21 03:29:06;;;;;;;128.05;43.42;;;10.10;99.90;;;;;;5016314;28;20567;-74
2023/10/21 03:31:31;;;;;;;64.03;33.30;;;10.10;99.90;;;;;;5021192;28;20064;-74
2023/10/21 03:34:00;;;;;;;69.60;36.58;;;10.10;99.90;;;;;;5009128;28;20041;-74
2023/10/21 03:36:27;;;;;;;92.50;39.47;;;10.10;99.90;;;;;;5017924;28;20045;-74
2023/10/21 03:38:52;;;;;;;51.40;31.27;;;10.10;99.90;;;;;;5022238;28;20587;-74
2023/10/21 03:41:18;;;;;;;121.78;44.97;;;10.00;99.90;;;;;;5023642;28;20054;-74
2023/10/21 03:43:44;;;;;;;99.90;41.55;;;10.00;99.90;;;;;;5007953;28;20119;-74
2023/10/21 03:46:17;;;;;;;61.17;35.05;;;10.10;99.90;;;;;;4998999;28;20539;-74
2023/10/21 03:48:46;;;;;;;76.82;37.65;;;10.10;99.90;;;;;;5022177;28;20124;-74
2023/10/21 03:51:12;;;;;;;53.55;31.67;;;10.10;99.90;;;;;;5004231;28;20041;-74
2023/10/21 03:53:43;;;;;;;51.58;33.38;;;10.10;99.90;;;;;;4994068;28;20056;-74
2023/10/21 03:56:10;;;;;;;54.25;32.55;;;10.10;99.90;;;;;;5022377;28;20144;-74
2023/10/21 03:58:37;;;;;;;87.68;39.05;;;10.10;99.90;;;;;;5006545;28;20048;-74
2023/10/21 04:01:02;;;;;;;51.65;33.22;;;10.00;99.90;;;;;;5019181;28;20495;-74
2023/10/21 04:03:28;;;;;;;98.28;40.88;;;10.00;99.90;;;;;;5000076;28;20045;-74
2023/10/21 04:05:55;;;;;;;60.00;34.28;;;10.00;99.90;;;;;;4997207;28;20056;-74
2023/10/21 04:08:22;;;;;;;48.10;31.20;;;10.10;99.90;;;;;;5016355;28;20038;-74
2023/10/21 04:10:48;;;;;;;64.30;33.55;;;10.10;99.90;;;;;;5016112;28;20123;-74
2023/10/21 04:13:14;;;;;;;96.60;39.40;;;10.10;99.90;;;;;;5010488;28;20038;-74
2023/10/21 04:15:39;;;;;;;50.85;30.27;;;10.00;99.90;;;;;;5013070;28;20507;-74
2023/10/21 04:18:05;;;;;;;119.85;41.88;;;10.10;99.90;;;;;;5017161;28;20121;-74
2023/10/21 04:20:34;;;;;;;57.45;31.10;;;10.00;99.90;;;;;;5016635;28;20044;-74
2023/10/21 04:23:00;;;;;;;85.57;37.78;;;10.00;99.90;;;;;;5000174;28;20049;-74
2023/10/21 04:25:26;;;;;;;134.48;39.58;;;10.00;99.90;;;;;;5022049;28;20093;-74
2023/10/21 04:27:52;;;;;;;98.70;35.97;;;10.00;99.90;;;;;;5011473;28;20053;-74
2023/10/21 04:30:18;;;;;;;93.43;34.45;;;10.00;99.90;;;;;;5017834;28;20574;-74
2023/10/21 04:32:44;;;;;;;90.25;35.60;;;9.90;99.90;;;;;;5027571;28;20080;-74
2023/10/21 04:35:10;;;;;;;111.28;36.42;;;9.90;99.90;;;;;;5021543;28;20127;-74
2023/10/21 04:37:36;;;;;;;43.17;26.58;;;9.80;99.90;;;;;;5016352;28;20037;-74
2023/10/21 04:40:03;;;;;;;49.38;30.00;;;9.80;99.90;;;;;;5012919;28;20045;-74
2023/10/21 04:42:32;;;;;;;116.72;39.90;;;9.80;99.90;;;;;;5018693;28;20121;-74
2023/10/21 04:44:58;;;;;;;78.45;33.22;;;9.80;99.90;;;;;;5026935;28;20179;-74
2023/10/21 04:47:23;;;;;;;83.95;33.08;;;9.80;99.90;;;;;;5012653;28;20219;-74
2023/10/21 04:49:49;;;;;;;69.10;31.98;;;9.80;99.90;;;;;;5007642;28;20148;-74
2023/10/21 04:52:15;;;;;;;40.13;25.33;;;9.80;99.90;;;;;;5008474;28;20121;-74
2023/10/21 04:54:44;;;;;;;41.75;27.27;;;9.80;99.90;;;;;;5037551;28;20052;-74
2023/10/21 04:57:11;;;;;;;53.28;28.58;;;9.80;99.90;;;;;;5013986;28;20053;-74
2023/10/21 04:59:40;;;;;;;109.35;36.05;;;9.90;99.90;;;;;;5004522;28;20085;-74
2023/10/21 05:02:07;;;;;;;53.42;30.33;;;9.90;99.90;;;;;;5014730;28;20041;-74
2023/10/21 05:04:36;;;;;;;130.13;41.15;;;9.90;99.90;;;;;;5013813;28;20398;-74
2023/10/21 05:07:05;;;;;;;144.55;40.22;;;9.90;99.90;;;;;;5013717;28;20073;-74
2023/10/21 05:09:31;;;;;;;151.57;43.47;;;9.90;99.90;;;;;;5005807;28;20038;-74
2023/10/21 05:11:57;;;;;;;103.97;38.40;;;9.90;99.90;;;;;;5024730;28;20519;-74
2023/10/21 05:14:23;;;;;;;47.72;28.65;;;9.90;99.90;;;;;;5024899;28;20129;-74
2023/10/21 05:16:49;;;;;;;52.30;29.38;;;10.00;99.90;;;;;;4997280;28;20133;-74
2023/10/21 05:19:15;;;;;;;67.25;33.25;;;10.00;99.90;;;;;;5015795;28;20050;-74
2023/10/21 05:21:41;;;;;;;143.95;40.83;;;10.00;99.90;;;;;;5016927;28;20045;-74
2023/10/21 05:24:09;;;;;;;80.55;33.45;;;10.00;99.90;;;;;;5022174;28;20057;-74
2023/10/21 05:26:36;;;;;;;38.92;25.83;;;10.00;99.90;;;;;;5024286;28;20095;-74
2023/10/21 05:29:02;;;;;;;83.25;34.38;;;10.00;99.90;;;;;;5024081;28;20535;-74
2023/10/21 05:31:28;;;;;;;54.78;29.73;;;10.00;99.90;;;;;;5006555;28;20037;-74
2023/10/21 05:33:57;;;;;;;91.05;35.22;;;10.10;99.90;;;;;;5022416;28;20053;-74
2023/10/21 05:36:24;;;;;;;60.92;30.98;;;10.10;99.90;;;;;;5025400;28;20472;-74
2023/10/21 05:38:50;;;;;;;42.10;26.70;;;10.10;99.90;;;;;;5023196;28;20107;-74
2023/10/21 05:41:15;;;;;;;41.80;27.17;;;10.10;99.90;;;;;;5024678;28;20500;-74
2023/10/21 05:43:41;;;;;;;44.58;28.65;;;10.10;99.90;;;;;;5013938;28;20041;-74
2023/10/21 05:46:10;;;;;;;47.03;30.15;;;10.10;99.90;;;;;;5027635;28;20446;-75
2023/10/21 05:48:36;;;;;;;65.70;31.20;;;10.20;99.90;;;;;;5007918;28;20037;-74
2023/10/21 05:51:02;;;;;;;56.85;29.27;;;10.30;99.90;;;;;;5014706;28;20045;-74
2023/10/21 05:53:28;;;;;;;50.35;29.65;;;10.30;99.90;;;;;;5004893;28;20506;-74
2023/10/21 05:55:55;;;;;;;85.45;35.00;;;10.30;99.90;;;;;;5020411;28;20068;-74
2023/10/21 05:58:21;;;;;;;68.78;32.53;;;10.30;99.90;;;;;;5020271;28;20480;-74
2023/10/21 06:00:47;;;;;;;65.43;33.53;;;10.40;99.90;;;;;;5025694;28;20144;-74
2023/10/21 06:03:13;;;;;;;43.15;28.10;;;10.40;99.90;;;;;;5013046;28;20061;-74
2023/10/21 06:05:39;;;;;;;71.22;34.00;;;10.40;99.90;;;;;;5010012;28;20045;-80
2023/10/21 06:08:07;;;;;;;54.38;28.88;;;10.50;99.90;;;;;;5011244;28;20124;-80
2023/10/21 06:10:32;;;;;;;45.25;28.45;;;10.50;99.90;;;;;;4998846;28;20073;-80
2023/10/21 06:12:58;;;;;;;61.78;31.67;;;10.50;99.90;;;;;;5040172;28;20080;-75
2023/10/21 06:15:24;;;;;;;54.08;29.92;;;10.50;99.90;;;;;;5010091;28;20057;-74
2023/10/21 06:17:49;;;;;;;41.58;26.85;;;10.50;99.90;;;;;;4999724;28;20164;-74
2023/10/21 06:20:15;;;;;;;50.65;28.83;;;10.60;99.90;;;;;;5023951;28;20442;-74
2023/10/21 06:22:41;;;;;;;49.60;29.13;;;10.60;99.90;;;;;;5038898;28;20091;-74
2023/10/21 06:25:08;;;;;;;90.78;36.65;;;10.60;99.90;;;;;;5002702;28;20088;-74
2023/10/21 06:27:39;;;;;;;44.42;28.00;;;10.60;99.90;;;;;;5021639;28;20056;-74
2023/10/21 06:30:05;;;;;;;53.03;29.17;;;10.60;99.90;;;;;;5015636;28;20057;-74
2023/10/21 06:32:31;;;;;;;45.08;29.27;;;10.60;99.90;;;;;;5027241;28;20432;-74
2023/10/21 06:34:57;;;;;;;73.20;34.75;;;10.70;99.90;;;;;;5011792;28;20049;-74
2023/10/21 06:37:23;;;;;;;42.47;28.20;;;10.70;99.90;;;;;;5020572;28;20048;-74
2023/10/21 06:39:52;;;;;;;49.45;29.05;;;10.80;99.90;;;;;;5022571;28;20551;-74
2023/10/21 06:42:17;;;;;;;43.92;27.95;;;10.80;99.90;;;;;;5031229;28;20042;-74
2023/10/21 06:44:43;;;;;;;44.85;28.23;;;10.80;99.90;;;;;;5022155;28;20091;-74
2023/10/21 06:47:09;;;;;;;43.13;28.30;;;10.80;99.90;;;;;;5005077;28;20050;-74
2023/10/21 06:49:35;;;;;;;48.15;29.23;;;10.90;99.90;;;;;;5022174;28;20030;-74
2023/10/21 06:52:00;;;;;;;113.18;40.90;;;10.90;99.90;;;;;;5019100;28;20038;-74
2023/10/21 06:54:26;;;;;;;44.63;28.02;;;10.90;99.90;;;;;;5026030;28;20052;-74
2023/10/21 06:56:52;;;;;;;69.78;31.80;;;10.90;99.90;;;;;;5019312;28;20617;-75
2023/10/21 06:59:18;;;;;;;50.33;30.83;;;11.00;99.90;;;;;;4999094;28;20419;-75
2023/10/21 07:01:43;;;;;;;56.78;29.70;;;11.00;99.90;;;;;;5023387;28;20124;-74
2023/10/21 07:04:10;;;;;;;39.13;26.50;;;11.00;99.90;;;;;;5017414;28;20081;-75
2023/10/21 07:06:37;;;;;;;61.72;30.42;;;11.10;99.90;;;;;;5001379;28;20120;-74
2023/10/21 07:09:03;;;;;;;49.03;30.45;;;11.10;99.90;;;;;;5019868;28;20036;-74
2023/10/21 07:11:28;;;;;;;43.92;27.98;;;11.20;99.90;;;;;;5036489;28;20431;-74
2023/10/21 07:13:54;;;;;;;42.88;27.83;;;11.20;99.90;;;;;;5005117;28;20487;-74
2023/10/21 07:16:20;;;;;;;37.63;27.10;;;11.30;99.90;;;;;;5021449;28;20052;-80
2023/10/21 07:18:45;;;;;;;79.38;35.90;;;11.30;99.90;;;;;;5023207;28;20045;-80
2023/10/21 07:21:16;;;;;;;41.35;25.48;;;11.40;99.90;;;;;;5013842;28;20128;-80
2023/10/21 07:23:41;;;;;;;;;;;11.40;99.90;;;;;;5018792;28;20052;-80
2023/10/21 07:26:07;;;;;;;51.53;30.02;;;11.40;99.90;;;;;;5004685;28;19920;-80
2023/10/21 07:28:36;;;;;;;72.13;33.50;;;11.40;99.90;;;;;;5021475;28;20486;-81
2023/10/21 07:31:02;;;;;;;34.42;25.05;;;11.50;99.90;;;;;;5016312;28;20041;-80
2023/10/21 07:33:28;;;;;;;58.95;30.77;;;11.60;99.90;;;;;;5017030;28;20048;-75
2023/10/21 07:35:54;;;;;;;51.75;29.40;;;11.60;99.90;;;;;;5018725;28;20072;-75
2023/10/21 07:38:21;;;;;;;41.42;26.55;;;11.70;99.90;;;;;;5023263;28;20045;-74
2023/10/21 07:40:47;;;;;;;43.45;26.85;;;11.70;99.90;;;;;;5014959;28;20073;-75
2023/10/21 07:43:17;;;;;;;52.53;31.02;;;11.70;99.90;;;;;;5009192;28;20124;-75
2023/10/21 07:45:44;;;;;;;36.17;26.70;;;11.70;99.90;;;;;;5011097;28;20068;-74
2023/10/21 07:48:10;;;;;;;35.38;26.02;;;11.80;99.90;;;;;;5022339;28;20041;-75
2023/10/21 07:50:37;;;;;;;38.17;27.58;;;11.80;99.90;;;;;;4996195;28;20053;-74
2023/10/21 07:53:07;;;;;;;36.50;26.17;;;11.90;99.90;;;;;;5016099;28;20042;-75
2023/10/21 07:55:36;;;;;;;41.03;27.80;;;12.00;99.90;;;;;;5008348;28;20045;-75
2023/10/21 07:58:02;;;;;;;33.55;25.02;;;12.00;99.90;;;;;;4991597;28;20496;-75
2023/10/21 08:00:28;;;;;;;36.35;26.60;;;12.10;99.90;;;;;;5032664;28;20050;-78
2023/10/21 08:02:54;;;;;;;31.63;24.10;;;12.10;99.90;;;;;;5014991;28;20333;-74
2023/10/21 08:05:22;;;;;;;39.05;27.38;;;12.20;99.90;;;;;;5008478;28;20049;-74
2023/10/21 08:07:47;;;;;;;30.20;24.30;;;12.30;99.90;;;;;;5019335;28;20057;-74
2023/10/21 08:10:13;;;;;;;32.53;24.77;;;12.40;99.90;;;;;;5021037;28;20050;-75
2023/10/21 08:12:39;;;;;;;35.03;24.88;;;12.40;99.90;;;;;;5025370;28;20048;-75
2023/10/21 08:15:09;;;;;;;28.35;23.48;;;12.50;99.90;;;;;;4992879;28;20057;-81
2023/10/21 08:17:36;;;;;;;31.05;24.00;;;12.60;99.90;;;;;;5006800;28;20057;-80
2023/10/21 08:20:02;;;;;;;28.38;21.73;;;12.60;99.90;;;;;;5027240;28;20463;-80
2023/10/21 08:22:28;;;;;;;30.63;22.65;;;12.70;99.90;;;;;;5014287;28;20084;-80
2023/10/21 08:24:54;;;;;;;28.77;21.50;;;12.80;99.90;;;;;;5020233;28;20085;-81
2023/10/21 08:27:23;;;;;;;28.85;21.38;;;12.90;99.90;;;;;;5007363;28;20065;-80
2023/10/21 08:29:48;;;;;;;25.17;18.98;;;13.00;99.90;;;;;;5022554;28;20096;-80
2023/10/21 08:32:14;;;;;;;21.15;17.58;;;13.20;99.90;;;;;;5022416;28;20073;-81
2023/10/21 08:34:41;;;;;;;35.50;21.30;;;13.20;99.90;;;;;;5002413;28;20053;-82
2023/10/21 08:37:10;;;;;;;22.40;19.35;;;13.30;99.90;;;;;;5015155;28;20053;-81
2023/10/21 08:39:36;;;;;;;20.92;16.40;;;13.30;99.90;;;;;;5004156;28;20041;-81
2023/10/21 08:42:05;;;;;;;28.05;19.60;;;13.40;99.90;;;;;;5008007;28;20404;-81
2023/10/21 08:44:36;;;;;;;21.50;16.10;;;13.50;99.90;;;;;;5018696;28;20070;-82
2023/10/21 08:47:05;;;;;;;17.42;14.18;;;13.60;99.90;;;;;;5013385;28;20120;-82
2023/10/21 08:49:33;;;;;;;18.13;15.60;;;13.70;99.90;;;;;;5021990;28;20385;-81
2023/10/21 08:52:02;;;;;;;18.55;14.57;;;13.70;99.90;;;;;;5025882;28;20510;-81
2023/10/21 08:54:30;;;;;;;15.07;13.38;;;13.90;99.90;;;;;;5023046;28;20045;-82
2023/10/21 08:56:57;;;;;;;16.65;12.95;;;13.90;99.90;;;;;;5008811;28;20082;-81
2023/10/21 08:59:24;;;;;;;14.77;11.40;;;13.90;99.90;;;;;;5006366;28;20522;-75
2023/10/21 09:01:49;;;;;;;20.98;12.43;;;14.00;99.90;;;;;;5025528;28;20567;-75
2023/10/21 09:04:18;;;;;;;16.55;11.77;;;14.10;99.90;;;;;;5012395;28;20120;-76
2023/10/21 09:06:55;;;;;;;15.55;12.95;;;14.10;99.90;;;;;;5005266;28;20046;-75
2023/10/21 09:09:28;;;;;;;15.10;12.55;;;14.10;99.90;;;;;;5014357;28;20081;-76
2023/10/21 09:12:10;;;;;;;13.50;11.30;;;14.10;99.90;;;;;;5018654;28;20056;-75
2023/10/21 09:14:51;;;;;;;14.98;10.77;;;14.20;99.90;;;;;;5013959;28;20065;-76
2023/10/21 09:17:17;;;;;;;12.63;11.10;;;14.20;99.90;;;;;;4996580;28;20041;-76
2023/10/21 09:19:43;;;;;;;15.75;10.07;;;14.20;99.90;;;;;;5020606;28;20049;-75
2023/10/21 09:22:27;;;;;;;18.90;11.38;;;14.30;99.90;;;;;;5023044;28;20038;-75
2023/10/21 09:25:19;;;;;;;16.27;10.65;;;14.30;99.90;;;;;;5015531;28;20053;-75
2023/10/21 09:27:53;;;;;;;11.70;9.23;;;14.30;99.90;;;;;;5029040;28;20216;-75
2023/10/21 09:30:23;;;;;;;15.40;9.57;;;14.30;99.90;;;;;;5013798;28;20046;-75
2023/10/21 09:32:51;;;;;;;12.35;9.07;;;14.20;99.90;;;;;;5010029;28;20056;-74
2023/10/21 09:35:24;;;;;;;9.93;7.95;;;14.20;99.90;;;;;;5003266;28;20451;-75
2023/10/21 09:37:50;;;;;;;13.05;8.02;;;14.20;99.90;;;;;;5010702;28;20053;-75
2023/10/21 09:40:20;;;;;;;14.80;8.32;;;14.20;99.90;;;;;;5028959;28;20630;-75
2023/10/21 09:42:49;;;;;;;10.15;7.38;;;14.20;99.90;;;;;;5012400;28;20444;-76
2023/10/21 09:45:18;;;;;;;11.13;7.45;;;14.20;99.90;;;;;;5026525;28;20045;-75
2023/10/21 09:47:45;;;;;;;8.85;6.97;;;14.10;99.90;;;;;;5004293;28;20053;-75
2023/10/21 09:50:13;;;;;;;9.05;6.20;;;14.20;99.90;;;;;;5026486;28;20128;-75
2023/10/21 09:53:06;;;;;;;7.35;5.97;;;14.10;99.90;;;;;;5029853;28;20189;-75
2023/10/21 09:55:36;;;;;;;9.32;7.28;;;14.10;99.90;;;;;;4999067;28;20068;-82
2023/10/21 09:58:03;;;;;;;7.22;5.40;;;14.10;99.90;;;;;;5025544;28;20060;-83
2023/10/21 10:00:30;;;;;;;8.27;5.30;;;14.10;99.90;;;;;;5022430;28;20049;-84
2023/10/21 10:02:56;;;;;;;7.38;5.85;;;14.10;99.90;;;;;;5022911;28;20500;-82
2023/10/21 10:05:22;;;;;;;8.38;5.05;;;14.00;99.90;;;;;;5008037;28;20134;-82
2023/10/21 10:07:49;;;;;;;5.93;4.30;;;14.00;99.90;;;;;;5020017;28;20073;-82
2023/10/21 10:10:20;;;;;;;8.15;4.28;;;14.00;99.90;;;;;;5040528;28;20072;-80
2023/10/21 10:13:11;;;;;;;7.68;4.70;;;14.00;99.90;;;;;;5025414;28;20057;-82
2023/10/21 10:15:41;;;;;;;7.22;4.18;;;14.10;99.90;;;;;;5022784;28;20049;-81
2023/10/21 10:18:21;;;;;;;4.50;3.70;;;14.00;99.90;;;;;;5023539;28;20051;-83
2023/10/21 10:20:52;;;;;;;6.45;4.43;;;14.00;99.90;;;;;;5004370;28;20049;-81
2023/10/21 10:23:25;;;;;;;6.18;3.88;;;14.00;99.90;;;;;;5024302;28;20045;-81
2023/10/21 10:25:54;;;;;;;4.65;3.42;;;14.00;99.90;;;;;;5008465;28;20120;-82
2023/10/21 10:28:23;;;;;;;4.78;3.45;;;14.00;99.90;;;;;;5008511;28;20081;-82
2023/10/21 10:30:50;;;;;;;4.88;3.55;;;14.00;99.90;;;;;;5007345;28;20511;-81
2023/10/21 10:33:22;;;;;;;4.22;2.80;;;14.00;99.90;;;;;;5022100;28;20099;-81
2023/10/21 10:35:53;;;;;;;4.97;3.00;;;14.00;99.90;;;;;;5009390;28;20076;-81
2023/10/21 10:38:25;;;;;;;4.07;2.70;;;14.00;99.90;;;;;;5018324;28;20033;-81
2023/10/21 10:41:18;;;;;;;7.60;3.40;;;13.90;99.90;;;;;;5017261;28;20033;-82
2023/10/21 10:43:46;;;;;;;3.05;1.98;;;13.90;99.90;;;;;;5000892;28;20049;-81
2023/10/21 10:46:24;;;;;;;1.98;1.38;;;13.90;99.90;;;;;;5023898;28;20052;-81
2023/10/21 10:48:51;;;;;;;2.55;1.60;;;13.80;99.90;;;;;;5027136;28;20045;-81
2023/10/21 10:51:21;;;;;;;2.90;1.52;;;13.80;99.90;;;;;;5020614;28;20522;-81
2023/10/21 10:53:56;;;;;;;3.92;1.65;;;13.90;99.90;;;;;;5022938;28;20055;-82
2023/10/21 10:56:43;;;;;;;4.00;1.88;;;13.90;99.90;;;;;;5007349;28;20045;-81
2023/10/21 10:59:17;;;;;;;2.78;1.92;;;14.00;99.90;;;;;;5006968;28;20049;-83
2023/10/21 11:01:45;;;;;;;4.15;1.60;;;14.00;99.90;;;;;;5019739;28;20049;-82
2023/10/21 11:04:11;;;;;;;2.42;1.58;;;14.10;99.90;;;;;;5022966;28;20064;-83
2023/10/21 11:06:43;;;;;;;4.45;1.60;;;14.20;99.90;;;;;;5017925;28;20041;-84
2023/10/21 11:09:16;;;;;;;3.33;1.45;;;14.30;99.90;;;;;;5020203;28;20045;-84
2023/10/21 11:11:50;;;;;;;2.90;1.38;;;14.30;99.90;;;;;;5020354;28;20056;-84
2023/10/21 11:14:16;;;;;;;3.08;1.35;;;14.20;99.90;;;;;;5011381;28;20041;-83
2023/10/21 11:16:44;;;;;;;2.53;1.40;;;14.20;99.90;;;;;;5003512;28;20496;-85
2023/10/21 11:19:13;;;;;;;3.63;1.52;;;14.10;99.90;;;;;;5022611;28;20052;-83
2023/10/21 11:21:41;;;;;;;3.72;1.58;;;14.10;99.90;;;;;;5022921;28;20088;-83
2023/10/21 11:24:10;;;;;;;3.05;1.10;;;14.10;99.90;;;;;;5018802;28;20128;-82
2023/10/21 11:26:38;;;;;;;3.65;1.23;;;14.10;99.90;;;;;;5022923;28;20375;-77
2023/10/21 11:29:08;;;;;;;2.65;1.10;;;14.10;99.90;;;;;;5036179;28;20463;-76
2023/10/21 11:31:37;;;;;;;2.35;0.85;;;14.10;99.90;;;;;;5008612;28;20038;-75
2023/10/21 11:34:21;;;;;;;2.80;0.82;;;14.10;99.90;;;;;;5004219;28;20050;-75
2023/10/21 11:36:50;;;;;;;2.78;1.05;;;14.00;99.90;;;;;;5007580;28;20136;-75
2023/10/21 11:39:17;;;;;;;3.05;1.05;;;14.00;99.90;;;;;;5005670;28;20034;-74
2023/10/21 11:41:47;;;;;;;2.97;0.80;;;14.00;99.90;;;;;;5001221;28;20071;-75
2023/10/21 11:44:23;;;;;;;1.75;0.68;;;13.90;99.90;;;;;;5016622;28;20045;-75
2023/10/21 11:46:49;;;;;;;2.70;0.95;;;13.90;99.90;;;;;;5008464;28;20378;-75
2023/10/21 11:49:15;;;;;;;3.88;1.00;;;13.90;99.90;;;;;;5005093;28;20140;-75
2023/10/21 11:51:42;;;;;;;2.20;1.13;;;13.80;99.90;;;;;;5022570;28;20041;-75
2023/10/21 11:54:32;;;;;;;2.78;1.00;;;13.80;99.90;;;;;;5022178;28;20108;-75
2023/10/21 12:13:31;;;;;;;2.22;1.02;;;13.90;99.90;;;;;;5039558;28;20503;-75
2023/10/21 12:26:47;;;;;;;2.67;1.08;;;14.10;99.90;;;;;;5022587;28;20403;-75
2023/10/21 12:42:26;;;;;;;3.65;0.75;;;14.40;99.90;;;;;;5011894;28;20530;-75
2023/10/21 12:44:55;;;;;;;3.35;1.10;;;14.40;99.90;;;;;;5012093;28;20125;-76
2023/10/21 12:47:21;;;;;;;2.60;0.88;;;14.40;99.90;;;;;;5004768;28;20157;-75
2023/10/21 12:49:50;;;;;;;3.35;0.95;;;14.50;99.90;;;;;;5020919;28;20226;-76
2023/10/21 12:52:17;;;;;;;4.88;0.95;;;14.50;99.90;;;;;;5004645;28;20487;-77
2023/10/21 12:54:43;;;;;;;2.55;0.80;;;14.50;99.90;;;;;;5021309;28;20092;-76
2023/10/21 12:57:14;;;;;;;2.45;0.77;;;14.50;99.90;;;;;;5014360;28;20510;-76
2023/10/21 12:59:43;;;;;;;3.75;1.10;;;14.50;99.90;;;;;;5006443;28;20419;-76
2023/10/21 13:02:10;;;;;;;3.60;0.95;;;14.50;99.90;;;;;;5019250;28;20033;-76
2023/10/21 13:04:37;;;;;;;4.22;1.20;;;14.50;99.90;;;;;;5020305;28;20057;-76
2023/10/21 13:07:05;;;;;;;2.95;1.20;;;14.50;99.90;;;;;;5022691;28;20068;-76
2023/10/21 13:09:31;;;;;;;3.13;0.95;;;14.40;99.90;;;;;;5015537;28;20056;-76
2023/10/21 13:11:57;;;;;;;5.47;0.88;;;14.40;99.90;;;;;;5003989;28;20171;-76
2023/10/21 13:14:24;;;;;;;2.92;0.95;;;14.40;99.90;;;;;;5036884;28;20084;-76